KEBS

Details ICAO KEBS
Name WEBSTER CITY MUNI
Region United States
Timezone America/Chicago (UTC-6.0)
Plans Departing 2
Arriving 0
Stats Elevation 1,121 ft / 342 m (AMSL)
Location 42.436794° -93.868713°
Runways 2
Magnetic Variation 1.013° E
Sunrise 2016-12-05 13:31:22 UTC / 2016-12-05 07:31:22 Local
Sunset 2016-12-05 22:44:16 UTC / 2016-12-05 16:44:16 Local
Advertisement - Login to hide

Runways

ID Width Length Bearing (true) Bearing (mag) Surface Threshold Offset Overrun Length
05 90 ft / 27 m 2,705 ft / 824 m 47.58° 46.57° Grass 0 ft / 0 m 0 ft / 0 m
14 75 ft / 23 m 4,007 ft / 1,221 m 144.08° 143.07° Concrete 0 ft / 0 m 0 ft / 0 m
23 90 ft / 27 m 2,705 ft / 824 m 227.58° 226.57° Grass 0 ft / 0 m 0 ft / 0 m
32 75 ft / 23 m 4,007 ft / 1,221 m 324.08° 323.07° Concrete 0 ft / 0 m 0 ft / 0 m

Map

Weather

Temperature
Clouds and Precipitation
Forecast for 2016-12-05 18:00 UTC. Updated an hour ago
Winds

METAR

KEBS 051555Z AUTO 16013KT 10SM CLR 01/01 A2977 RMK AO2

TAF

Not found

Frequencies

Recorded 127.82 MHz AWOS 3
Unicom 122.80 MHz CTAF/UNICOM
Warning: Do not use this data for real-world aviation or navigation. No guarantee of current accuracy is given.